Skip Navigation LinksHome page > Weather > Current weather Skip Navigation Links

Current Weather

Heathrow, London

For information only: do not use for flight planning or navigation.
Latest weather
Observation time Friday, June 23, 2017 9:20 PM BST
Local time Friday, June 23, 2017 9:34 PM BST
Flight conditions Visual Meteorological Conditions
Winds
Wind direction Southwest (230°)
Wind speed 17 mph
Visibility 6.2 mi.
Sky condition
Ceiling 3,500 ft. overcast
Cloud layer overcast 3,500 ft.
Temperature 68°F
Dewpoint 55°F
Altimeter 30.00 in.Hg
Derived measurements
Relative humidity 64%
Density altitude 702 ft.
Remarks
Fully automated report.
METAR EGLL 232020Z AUTO 23015KT 9999 OVC035 20/13 Q1016

Settings

Location code

InnerDrive.Weather 4.0.6144.1 Release CLR 4.0.30319.36366
Copyright ©2015 Inner Drive Technology. All rights reserved. Portions Copyright ©1986-2015 David Braverman.

Find weather

Site navigation


Skip Navigation Links

Place info

Page info

PayPal - The safer, easier way to pay online!

Return home.

Copyright ©2017 Inner Drive Technology. Purveyors of fine, hand-crafted computer software. Page printed 2017-06-23T20:34:17 UTC.